Time;durP1;ratioP1;P1;durP2;ratioP2;P2;SDS_P1;SDS_P2;PMS_P1;PMS_P2;Temp;Humidity;BMP_temperature;BMP_pressure;BME280_temperature;BME280_humidity;BME280_pressure;Samples;Min_cycle;Max_cycle;Signal;HPM_P1;HPM_P2
2021/11/21 00:00:42;;;;;;;25.20;21.70;;;5.70;99.90;;;;;;6320531;27;20465;-67
2021/11/21 00:03:45;;;;;;;23.20;20.70;;;5.60;99.90;;;;;;6324718;28;20894;-65
2021/11/21 00:06:49;;;;;;;28.67;20.87;;;5.70;99.90;;;;;;6310092;28;20468;-65
2021/11/21 00:09:53;;;;;;;23.90;18.90;;;5.60;99.90;;;;;;6314739;28;20490;-66
2021/11/21 00:12:56;;;;;;;28.70;19.53;;;5.60;99.90;;;;;;6324566;28;20472;-66
2021/11/21 00:16:01;;;;;;;24.97;20.10;;;5.60;99.90;;;;;;6324969;28;20951;-65
2021/11/21 00:19:04;;;;;;;25.33;19.47;;;5.70;99.90;;;;;;6324490;28;20977;-66
2021/11/21 00:22:08;;;;;;;24.17;18.80;;;5.70;99.90;;;;;;6324800;28;20987;-66
2021/11/21 00:25:12;;;;;;;21.80;19.50;;;5.60;99.90;;;;;;6324466;28;20483;-65
2021/11/21 00:28:15;;;;;;;23.90;19.00;;;5.60;99.90;;;;;;6324523;28;20472;-64
2021/11/21 00:31:21;;;;;;;25.20;21.47;;;5.60;99.90;;;;;;6324869;28;20464;-65
2021/11/21 00:34:24;;;;;;;26.87;21.77;;;5.60;99.90;;;;;;6324253;28;20480;-64
2021/11/21 00:37:28;;;;;;;23.03;20.30;;;5.50;99.90;;;;;;6327761;28;20487;-65
2021/11/21 00:40:32;;;;;;;24.03;20.70;;;5.50;99.90;;;;;;6329655;27;20835;-66
2021/11/21 00:43:35;;;;;;;23.43;19.20;;;5.40;99.90;;;;;;6329877;28;20483;-64
2021/11/21 00:46:39;;;;;;;23.07;19.87;;;5.30;99.90;;;;;;6329120;28;20490;-65
2021/11/21 00:49:43;;;;;;;23.23;20.83;;;5.30;99.90;;;;;;6329370;28;20998;-66
2021/11/21 00:52:47;;;;;;;23.57;20.87;;;5.30;99.90;;;;;;6329199;28;20472;-65
2021/11/21 00:55:51;;;;;;;23.83;19.63;;;5.30;99.90;;;;;;6328874;28;20487;-64
2021/11/21 00:58:54;;;;;;;23.70;19.57;;;5.20;99.90;;;;;;6324644;28;20473;-67
2021/11/21 01:02:01;;;;;;;23.53;20.50;;;5.20;99.90;;;;;;6309243;28;20490;-65
2021/11/21 01:05:07;;;;;;;24.33;19.77;;;5.20;99.90;;;;;;6328379;28;20878;-65
2021/11/21 01:08:10;;;;;;;23.50;20.73;;;5.10;99.90;;;;;;6328803;28;20471;-65
2021/11/21 01:11:14;;;;;;;26.40;20.33;;;5.10;99.90;;;;;;6328591;28;20468;-64
2021/11/21 01:14:17;;;;;;;24.07;19.77;;;5.10;99.90;;;;;;6329046;28;20478;-63
2021/11/21 01:17:21;;;;;;;26.43;23.70;;;5.10;99.90;;;;;;6330100;28;20492;-65
2021/11/21 01:20:28;;;;;;;25.17;22.27;;;5.10;99.90;;;;;;6331076;28;20479;-64
2021/11/21 01:23:31;;;;;;;22.97;20.63;;;5.00;99.90;;;;;;6306209;28;20814;-64
2021/11/21 01:26:35;;;;;;;25.50;21.40;;;5.00;99.90;;;;;;6305287;28;20453;-66
2021/11/21 01:29:38;;;;;;;27.57;21.73;;;5.00;99.90;;;;;;6303860;28;20449;-66
2021/11/21 01:32:43;;;;;;;21.83;19.60;;;5.00;99.90;;;;;;6307023;28;20445;-67
2021/11/21 01:35:46;;;;;;;23.03;20.50;;;5.00;99.90;;;;;;6313459;28;20453;-67
2021/11/21 01:38:50;;;;;;;23.50;17.73;;;5.00;99.90;;;;;;6302273;28;20477;-67
2021/11/21 01:41:53;;;;;;;25.80;19.10;;;5.00;99.90;;;;;;6302058;28;20804;-67
2021/11/21 01:44:56;;;;;;;21.47;18.87;;;4.90;99.90;;;;;;6300988;28;20826;-67
2021/11/21 01:48:01;;;;;;;22.17;18.93;;;5.00;99.90;;;;;;6304602;28;20479;-66
2021/11/21 01:51:07;;;;;;;23.03;20.60;;;4.90;99.90;;;;;;6327065;28;20475;-66
2021/11/21 01:54:12;;;;;;;20.47;18.30;;;4.80;99.90;;;;;;6300598;28;21003;-66
2021/11/21 01:57:17;;;;;;;20.83;18.33;;;4.80;99.90;;;;;;6300129;28;20477;-67
2021/11/21 02:00:21;;;;;;;20.50;18.10;;;4.80;99.90;;;;;;6298958;28;20477;-66
2021/11/21 02:03:25;;;;;;;24.37;19.80;;;4.80;99.90;;;;;;6300961;28;20991;-67
2021/11/21 02:06:29;;;;;;;22.93;20.47;;;4.70;99.90;;;;;;6301112;28;20812;-66
2021/11/21 02:09:32;;;;;;;23.30;20.93;;;4.50;99.90;;;;;;6302772;28;20469;-66
2021/11/21 02:12:36;;;;;;;26.83;21.80;;;4.40;99.90;;;;;;6303096;28;20473;-66
2021/11/21 02:15:42;;;;;;;22.77;20.13;;;4.20;99.90;;;;;;6302509;28;20480;-67
2021/11/21 02:18:47;;;;;;;20.87;18.57;;;4.10;99.90;;;;;;6302190;28;20473;-67
2021/11/21 02:21:52;;;;;;;22.07;19.77;;;3.80;99.90;;;;;;6302603;28;20461;-68
2021/11/21 02:24:55;;;;;;;20.20;18.10;;;3.80;99.90;;;;;;6302261;28;20473;-68
2021/11/21 02:27:59;;;;;;;21.47;19.07;;;3.80;99.90;;;;;;6297482;28;20473;-67
2021/11/21 02:31:02;;;;;;;20.67;16.83;;;3.70;99.90;;;;;;6302048;28;20473;-68
2021/11/21 02:34:05;;;;;;;22.17;19.83;;;3.70;99.90;;;;;;6302106;28;20506;-67
2021/11/21 02:37:10;;;;;;;34.33;19.77;;;3.60;99.90;;;;;;6301670;28;20486;-67
2021/11/21 02:40:15;;;;;;;23.53;20.97;;;3.50;99.90;;;;;;6302118;28;20476;-67
2021/11/21 02:43:20;;;;;;;21.20;19.00;;;3.50;99.90;;;;;;6301542;28;20808;-67
2021/11/21 02:46:23;;;;;;;21.93;19.73;;;3.50;99.90;;;;;;6301385;28;20477;-67
2021/11/21 02:49:26;;;;;;;23.17;19.13;;;3.40;99.90;;;;;;6301289;28;20826;-68
2021/11/21 02:52:32;;;;;;;29.97;19.97;;;3.40;99.90;;;;;;6301365;28;20566;-67
2021/11/21 02:55:35;;;;;;;19.47;17.47;;;3.40;99.90;;;;;;6300971;28;20476;-67
2021/11/21 02:58:39;;;;;;;20.30;17.73;;;3.30;99.90;;;;;;6301124;28;20469;-67
2021/11/21 03:01:43;;;;;;;18.67;16.87;;;3.30;99.90;;;;;;6301038;28;20485;-68
2021/11/21 03:04:46;;;;;;;21.40;19.20;;;3.30;99.90;;;;;;6300859;28;20509;-68
2021/11/21 03:07:51;;;;;;;19.97;17.97;;;3.30;99.90;;;;;;6301311;28;20469;-67
2021/11/21 03:10:55;;;;;;;21.50;19.30;;;3.40;99.90;;;;;;6300688;28;20484;-67
2021/11/21 03:14:00;;;;;;;20.47;17.73;;;3.50;99.90;;;;;;6300647;28;20484;-68
2021/11/21 03:17:04;;;;;;;18.03;16.17;;;3.60;99.90;;;;;;6300198;28;20481;-67
2021/11/21 03:20:08;;;;;;;18.93;16.93;;;3.70;99.90;;;;;;6300867;28;20473;-67
2021/11/21 03:23:13;;;;;;;21.00;18.80;;;3.70;99.90;;;;;;6300813;28;20473;-66
2021/11/21 03:26:16;;;;;;;20.20;18.07;;;3.80;99.90;;;;;;6300352;28;20562;-65
2021/11/21 03:29:20;;;;;;;21.17;18.97;;;3.80;99.90;;;;;;6300671;28;20611;-65
2021/11/21 03:32:23;;;;;;;20.80;17.20;;;3.90;99.90;;;;;;6300406;28;20476;-65
2021/11/21 03:35:26;;;;;;;20.73;17.33;;;3.90;99.90;;;;;;6300669;28;20964;-66
2021/11/21 03:38:31;;;;;;;19.47;17.37;;;3.90;99.90;;;;;;6300182;28;20816;-66
2021/11/21 03:41:34;;;;;;;19.80;16.20;;;3.90;99.90;;;;;;6300052;28;20916;-66
2021/11/21 03:44:37;;;;;;;19.30;15.63;;;3.90;99.90;;;;;;6300253;28;20961;-66
2021/11/21 03:47:41;;;;;;;20.90;17.03;;;4.00;99.90;;;;;;6300207;28;20465;-66
2021/11/21 03:50:44;;;;;;;18.57;16.57;;;4.00;99.90;;;;;;6300341;28;20445;-66
2021/11/21 03:53:48;;;;;;;17.50;15.60;;;4.00;99.90;;;;;;6300238;28;20445;-65
2021/11/21 03:56:51;;;;;;;20.53;14.90;;;3.90;99.90;;;;;;6300330;28;20476;-67
2021/11/21 03:59:54;;;;;;;16.13;14.43;;;4.00;99.90;;;;;;6300174;28;20771;-66
2021/11/21 04:02:58;;;;;;;19.90;17.10;;;3.90;99.90;;;;;;6300529;28;20468;-66
2021/11/21 04:06:02;;;;;;;18.53;16.53;;;4.00;99.90;;;;;;6300206;28;20532;-67
2021/11/21 04:09:06;;;;;;;19.40;16.73;;;3.90;99.90;;;;;;6300249;28;20534;-67
2021/11/21 04:12:10;;;;;;;21.10;15.57;;;3.90;99.90;;;;;;6299275;28;20469;-67
2021/11/21 04:15:13;;;;;;;17.83;15.10;;;3.90;99.90;;;;;;6299936;28;20468;-65
2021/11/21 04:18:17;;;;;;;18.27;16.30;;;3.90;99.90;;;;;;6300724;28;20492;-67
2021/11/21 04:21:20;;;;;;;17.77;15.87;;;3.90;99.90;;;;;;6300135;28;20989;-67
2021/11/21 04:24:25;;;;;;;18.60;16.43;;;3.90;99.90;;;;;;6300335;28;20465;-68
2021/11/21 04:27:28;;;;;;;18.37;16.47;;;3.90;99.90;;;;;;6299803;28;20818;-67
2021/11/21 04:30:31;;;;;;;18.77;15.10;;;3.80;99.90;;;;;;6299883;28;20461;-66
2021/11/21 04:33:35;;;;;;;19.40;17.40;;;3.90;99.90;;;;;;6300150;28;20473;-67
2021/11/21 04:36:38;;;;;;;17.17;14.57;;;3.90;99.90;;;;;;6299072;28;20542;-67
2021/11/21 04:39:42;;;;;;;16.60;14.00;;;3.90;99.90;;;;;;6299571;28;20469;-66
2021/11/21 04:42:46;;;;;;;17.07;14.70;;;3.90;99.90;;;;;;6299163;28;20477;-66
2021/11/21 04:45:49;;;;;;;20.77;14.80;;;3.80;99.90;;;;;;6299691;28;20480;-66
2021/11/21 04:48:53;;;;;;;15.43;13.83;;;3.80;99.90;;;;;;6300156;28;21000;-67
2021/11/21 04:51:57;;;;;;;16.03;14.27;;;3.70;99.90;;;;;;6299614;28;20469;-66
2021/11/21 04:55:02;;;;;;;16.17;14.30;;;3.70;99.90;;;;;;6299296;28;20480;-66
2021/11/21 04:58:05;;;;;;;17.57;15.47;;;3.80;99.90;;;;;;6299971;28;20469;-67
2021/11/21 05:01:09;;;;;;;17.07;13.77;;;3.80;99.90;;;;;;6300060;28;20984;-66
2021/11/21 05:04:12;;;;;;;17.60;15.20;;;3.70;99.90;;;;;;6299232;28;21004;-66
2021/11/21 05:07:16;;;;;;;17.07;15.27;;;3.70;99.90;;;;;;6298690;28;20492;-66
2021/11/21 05:10:23;;;;;;;18.10;16.30;;;3.70;99.90;;;;;;6298743;28;20492;-66
2021/11/21 05:13:26;;;;;;;16.33;14.63;;;3.60;99.90;;;;;;6299418;28;20465;-66
2021/11/21 05:16:29;;;;;;;16.80;15.00;;;3.60;99.90;;;;;;6299202;28;20542;-67
2021/11/21 05:19:33;;;;;;;17.47;15.63;;;3.60;99.90;;;;;;6299283;28;20469;-68
2021/11/21 05:22:36;;;;;;;19.87;16.27;;;3.50;99.90;;;;;;6300808;28;20484;-67
2021/11/21 05:25:40;;;;;;;20.33;18.13;;;3.50;99.90;;;;;;6302904;28;20485;-68
2021/11/21 05:28:44;;;;;;;20.87;17.90;;;3.50;99.90;;;;;;6303403;28;20482;-66
2021/11/21 05:31:47;;;;;;;20.87;18.70;;;3.50;99.90;;;;;;6303196;28;20473;-66
2021/11/21 05:34:51;;;;;;;22.87;18.23;;;3.40;99.90;;;;;;6303136;28;20493;-66
2021/11/21 05:37:55;;;;;;;20.67;18.47;;;3.30;99.90;;;;;;6302955;28;20976;-66
2021/11/21 05:41:00;;;;;;;21.30;18.87;;;3.30;99.90;;;;;;6303048;28;20476;-66
2021/11/21 05:44:03;;;;;;;20.80;18.60;;;3.20;99.90;;;;;;6303567;28;20477;-66
2021/11/21 05:47:06;;;;;;;20.90;17.07;;;3.00;99.90;;;;;;6303259;28;20618;-66
2021/11/21 05:50:13;;;;;;;19.60;17.17;;;3.10;99.90;;;;;;6302999;28;20526;-66
2021/11/21 05:53:16;;;;;;;21.17;19.07;;;3.00;99.90;;;;;;6303186;28;20499;-66
2021/11/21 05:56:21;;;;;;;20.40;17.90;;;3.00;99.90;;;;;;6302724;28;20496;-66
2021/11/21 05:59:24;;;;;;;18.87;16.97;;;3.00;99.90;;;;;;6303222;28;20469;-66
2021/11/21 06:02:27;;;;;;;19.77;17.77;;;3.00;99.90;;;;;;6303444;28;20491;-66
2021/11/21 06:05:31;;;;;;;21.10;17.77;;;3.00;99.90;;;;;;6303182;28;20812;-66
2021/11/21 06:08:35;;;;;;;17.90;16.00;;;3.00;99.90;;;;;;6302147;28;20464;-66
2021/11/21 06:11:40;;;;;;;19.93;16.83;;;3.00;99.90;;;;;;6302832;28;20445;-66
2021/11/21 06:14:43;;;;;;;20.23;18.10;;;2.90;99.90;;;;;;6302453;28;20449;-66
2021/11/21 06:17:46;;;;;;;19.53;17.37;;;2.90;99.90;;;;;;6302506;28;20468;-66
2021/11/21 06:20:49;;;;;;;21.27;17.50;;;2.90;99.90;;;;;;6302109;28;20457;-66
2021/11/21 06:23:52;;;;;;;18.73;16.73;;;3.00;99.90;;;;;;6302593;28;20461;-67
2021/11/21 06:26:57;;;;;;;19.43;17.40;;;3.00;99.90;;;;;;6302548;28;20457;-67
2021/11/21 06:30:00;;;;;;;18.60;16.43;;;3.10;99.90;;;;;;6302232;28;20477;-67
2021/11/21 06:33:03;;;;;;;19.43;16.43;;;3.20;99.90;;;;;;6301739;28;20465;-67
2021/11/21 06:36:07;;;;;;;19.67;16.60;;;3.30;99.90;;;;;;6301961;28;20484;-67
2021/11/21 06:39:10;;;;;;;20.30;16.80;;;3.40;99.90;;;;;;6301832;28;20468;-68
2021/11/21 06:42:15;;;;;;;18.60;15.67;;;3.50;99.90;;;;;;6297662;28;20488;-68
2021/11/21 06:45:18;;;;;;;16.73;14.80;;;3.60;99.90;;;;;;6302063;28;20813;-67
2021/11/21 06:48:22;;;;;;;18.97;16.97;;;3.70;99.90;;;;;;6301418;28;20469;-67
2021/11/21 06:51:25;;;;;;;17.43;15.37;;;3.70;99.90;;;;;;6301956;28;20465;-68
2021/11/21 06:54:28;;;;;;;17.00;13.80;;;3.80;99.90;;;;;;6301484;28;20487;-68
2021/11/21 06:57:33;;;;;;;19.00;16.33;;;3.80;99.90;;;;;;6301259;28;20979;-67
2021/11/21 07:00:37;;;;;;;16.53;14.83;;;3.90;99.90;;;;;;6301533;28;20969;-68
2021/11/21 07:03:40;;;;;;;16.97;15.20;;;4.00;99.90;;;;;;6301375;28;20469;-67
2021/11/21 07:06:46;;;;;;;16.73;15.00;;;4.00;99.90;;;;;;6301105;28;20473;-68
2021/11/21 07:09:49;;;;;;;16.17;14.43;;;4.00;99.90;;;;;;6301449;28;20488;-68
2021/11/21 07:12:54;;;;;;;17.23;15.33;;;4.00;99.90;;;;;;6301146;28;20461;-68
2021/11/21 07:15:58;;;;;;;17.67;15.90;;;3.90;99.90;;;;;;6301862;28;20828;-68
2021/11/21 07:19:01;;;;;;;18.10;16.20;;;3.70;99.90;;;;;;6301545;28;20484;-67
2021/11/21 07:22:05;;;;;;;18.27;15.87;;;3.70;99.90;;;;;;6301456;28;20460;-67
2021/11/21 07:25:08;;;;;;;17.53;15.63;;;3.80;99.90;;;;;;6301110;28;20473;-67
2021/11/21 07:28:13;;;;;;;18.80;15.47;;;3.70;99.90;;;;;;6300889;28;20472;-67
2021/11/21 07:31:16;;;;;;;17.07;15.27;;;3.80;99.90;;;;;;6300930;28;20477;-68
2021/11/21 07:34:19;;;;;;;20.57;17.23;;;3.80;99.90;;;;;;6300707;28;20469;-69
2021/11/21 07:37:23;;;;;;;18.47;15.90;;;3.80;99.90;;;;;;6300905;28;20492;-67
2021/11/21 07:40:26;;;;;;;17.20;15.53;;;3.90;99.90;;;;;;6301021;28;20488;-68
2021/11/21 07:43:31;;;;;;;18.67;16.73;;;3.80;99.90;;;;;;6301724;28;20452;-68
2021/11/21 07:46:34;;;;;;;17.67;15.77;;;3.90;99.90;;;;;;6300957;28;20480;-68
2021/11/21 07:49:38;;;;;;;18.20;16.30;;;4.00;99.90;;;;;;6300822;28;20483;-67
2021/11/21 07:52:42;;;;;;;18.63;16.77;;;3.90;99.90;;;;;;6299990;28;20472;-66
2021/11/21 07:55:45;;;;;;;18.47;16.10;;;4.10;99.90;;;;;;6300230;28;20477;-66
2021/11/21 07:58:50;;;;;;;19.60;17.70;;;4.20;99.90;;;;;;6300445;28;20469;-67
2021/11/21 08:01:53;;;;;;;18.27;16.57;;;4.30;99.90;;;;;;6300377;28;20834;-67
2021/11/21 08:04:56;;;;;;;18.20;16.30;;;4.50;99.90;;;;;;6299962;28;20469;-67
2021/11/21 08:07:59;;;;;;;19.00;16.83;;;4.90;99.90;;;;;;6299681;28;20481;-66
2021/11/21 08:11:03;;;;;;;16.73;15.10;;;5.20;99.90;;;;;;6299774;28;20473;-66
2021/11/21 08:14:08;;;;;;;18.20;16.00;;;5.60;99.90;;;;;;6300076;28;20469;-68
2021/11/21 08:17:11;;;;;;;19.80;16.90;;;5.90;99.90;;;;;;6299945;28;20470;-68
2021/11/21 08:20:14;;;;;;;18.50;16.00;;;6.10;99.90;;;;;;6300191;28;20481;-68
2021/11/21 08:23:18;;;;;;;19.63;17.37;;;6.30;99.90;;;;;;6300522;28;20476;-67
2021/11/21 08:26:22;;;;;;;19.90;17.50;;;6.50;99.90;;;;;;6301286;28;20488;-68
2021/11/21 08:29:26;;;;;;;20.23;18.10;;;6.70;99.90;;;;;;6301886;28;20491;-66
2021/11/21 08:32:34;;;;;;;19.13;17.23;;;6.80;99.90;;;;;;6300122;28;20531;-67
2021/11/21 08:35:39;;;;;;;21.70;18.80;;;7.00;99.90;;;;;;6301015;28;20462;-67
2021/11/21 08:38:42;;;;;;;20.63;18.43;;;7.10;99.90;;;;;;6298995;28;20461;-65
2021/11/21 08:41:45;;;;;;;18.97;16.90;;;7.10;99.90;;;;;;6298836;28;20452;-65
2021/11/21 08:44:50;;;;;;;22.77;18.67;;;7.20;99.90;;;;;;6299345;28;20433;-66
2021/11/21 08:47:53;;;;;;;20.40;17.30;;;7.30;99.90;;;;;;6299840;28;20457;-67
2021/11/21 08:50:56;;;;;;;22.00;19.60;;;7.40;99.70;;;;;;6294989;28;21007;-67
2021/11/21 08:54:00;;;;;;;22.10;19.80;;;7.60;99.50;;;;;;6299783;28;20786;-67
2021/11/21 08:57:03;;;;;;;20.17;17.90;;;7.90;99.20;;;;;;6300388;28;20473;-67
2021/11/21 09:00:10;;;;;;;18.17;16.27;;;7.50;98.90;;;;;;6304915;28;20464;-67
2021/11/21 09:03:13;;;;;;;20.40;18.40;;;7.50;99.50;;;;;;6303179;28;20479;-67
2021/11/21 09:06:16;;;;;;;18.40;16.50;;;7.90;98.90;;;;;;6302826;28;20514;-68
2021/11/21 09:09:19;;;;;;;20.83;18.20;;;8.20;98.10;;;;;;6302597;28;20481;-67
2021/11/21 09:12:23;;;;;;;20.13;16.80;;;8.00;98.40;;;;;;6302760;28;20504;-68
2021/11/21 09:15:27;;;;;;;19.77;17.67;;;8.30;98.20;;;;;;6302916;28;20488;-67
2021/11/21 09:18:30;;;;;;;21.27;18.40;;;8.50;98.00;;;;;;6303837;28;20469;-67
2021/11/21 09:21:34;;;;;;;21.50;19.37;;;8.60;97.60;;;;;;6304211;28;20598;-67
2021/11/21 09:24:37;;;;;;;22.40;18.30;;;8.70;97.40;;;;;;6303515;28;20484;-67
2021/11/21 09:27:40;;;;;;;22.63;20.27;;;9.00;97.70;;;;;;6301296;28;20993;-66
2021/11/21 09:30:45;;;;;;;20.13;18.10;;;9.30;96.60;;;;;;6303439;28;20461;-67
2021/11/21 09:33:48;;;;;;;23.33;18.37;;;9.40;96.30;;;;;;6302459;28;20465;-67
2021/11/21 09:36:51;;;;;;;19.83;16.93;;;9.50;96.60;;;;;;6302501;28;20476;-67
2021/11/21 09:39:55;;;;;;;22.30;19.53;;;9.80;96.30;;;;;;6303210;28;20471;-67
2021/11/21 09:42:58;;;;;;;22.70;18.87;;;10.00;94.90;;;;;;6303594;28;20473;-66
2021/11/21 09:46:03;;;;;;;20.37;18.27;;;10.10;95.00;;;;;;6300821;28;20465;-67
2021/11/21 09:49:06;;;;;;;22.90;19.03;;;10.10;94.80;;;;;;6303601;28;20507;-67
2021/11/21 09:52:14;;;;;;;21.77;18.47;;;10.20;94.70;;;;;;6302604;28;20473;-66
2021/11/21 09:55:18;;;;;;;23.67;19.30;;;10.00;95.20;;;;;;6294310;28;20496;-67
2021/11/21 09:58:22;;;;;;;22.63;18.30;;;10.10;95.50;;;;;;6303349;28;20787;-66
2021/11/21 10:01:39;;;;;;;20.20;17.73;;;10.10;95.20;;;;;;6303054;28;20465;-66
2021/11/21 10:04:43;;;;;;;21.17;18.00;;;10.20;95.00;;;;;;6302919;28;20469;-66
2021/11/21 10:07:46;;;;;;;23.70;18.53;;;10.20;94.90;;;;;;6320691;28;20480;-66
2021/11/21 10:10:52;;;;;;;21.60;17.97;;;10.10;95.10;;;;;;6327502;28;20979;-66
2021/11/21 10:13:56;;;;;;;20.53;17.10;;;10.10;95.20;;;;;;6327772;28;20476;-66
2021/11/21 10:17:00;;;;;;;21.33;18.23;;;10.30;95.40;;;;;;6327631;28;20479;-68
2021/11/21 10:20:20;;;;;;;20.50;17.10;;;10.40;95.10;;;;;;6327074;28;20479;-66
2021/11/21 10:23:25;;;;;;;19.73;17.37;;;10.70;94.90;;;;;;6327173;28;20543;-67
2021/11/21 10:26:28;;;;;;;19.17;17.27;;;11.00;94.40;;;;;;6327063;28;20958;-66
2021/11/21 10:29:34;;;;;;;22.87;18.60;;;11.40;94.10;;;;;;6327114;28;20487;-66
2021/11/21 10:32:50;;;;;;;22.37;17.67;;;11.50;93.30;;;;;;6327014;28;20527;-67
2021/11/21 10:35:55;;;;;;;17.27;15.40;;;11.90;93.30;;;;;;6327031;28;20476;-67
2021/11/21 10:39:02;;;;;;;18.93;16.93;;;12.40;92.40;;;;;;6327375;28;20940;-67
2021/11/21 10:42:07;;;;;;;21.30;18.57;;;12.70;91.90;;;;;;6327070;28;20460;-67
2021/11/21 10:45:13;;;;;;;19.53;16.70;;;12.90;91.70;;;;;;6327204;28;20468;-67
2021/11/21 10:48:25;;;;;;;18.90;16.80;;;13.20;91.40;;;;;;6327155;28;20465;-67
2021/11/21 10:51:28;;;;;;;17.67;15.80;;;13.60;90.20;;;;;;6326577;28;20766;-67
2021/11/21 10:54:33;;;;;;;17.10;15.30;;;14.20;90.00;;;;;;6326294;28;20475;-65
2021/11/21 10:57:37;;;;;;;16.70;15.10;;;16.60;86.10;;;;;;6318397;27;20500;-65
2021/11/21 11:00:40;;;;;;;16.97;15.37;;;20.30;71.20;;;;;;6326915;27;20480;-65
2021/11/21 11:03:47;;;;;;;18.87;17.17;;;23.80;54.50;;;;;;6326125;28;20708;-65
2021/11/21 11:06:50;;;;;;;18.10;16.37;;;26.70;46.40;;;;;;6325515;28;20300;-67
2021/11/21 11:09:55;;;;;;;18.60;17.00;;;29.10;39.20;;;;;;6326194;28;20245;-66
2021/11/21 11:13:01;;;;;;;20.00;18.30;;;30.50;33.70;;;;;;6326532;28;20237;-65
2021/11/21 11:16:04;;;;;;;19.80;18.20;;;31.20;30.90;;;;;;6325867;28;20244;-67
2021/11/21 11:19:09;;;;;;;21.17;19.47;;;32.10;30.20;;;;;;6326141;28;20225;-67
2021/11/21 11:22:12;;;;;;;20.67;18.95;;;33.30;28.60;;;;;;6325223;28;20229;-69
2021/11/21 11:25:20;;;;;;;20.27;18.70;;;34.50;26.90;;;;;;6325398;28;20229;-65
2021/11/21 11:28:29;;;;;;;19.77;18.25;;;35.30;25.80;;;;;;6325790;28;20226;-65
2021/11/21 11:31:36;;;;;;;19.80;18.10;;;35.70;24.90;;;;;;6323797;28;20708;-65
2021/11/21 11:34:40;;;;;;;21.58;19.98;;;36.30;24.20;;;;;;6324639;28;20309;-66
2021/11/21 11:37:46;;;;;;;21.42;19.73;;;36.70;24.20;;;;;;6324535;28;20544;-64
2021/11/21 11:40:55;;;;;;;19.77;18.33;;;36.40;23.50;;;;;;6325302;28;20220;-64
2021/11/21 11:44:01;;;;;;;18.83;17.35;;;35.50;23.40;;;;;;6325076;28;20666;-66
2021/11/21 11:47:23;;;;;;;20.15;18.55;;;35.30;24.20;;;;;;6325278;28;20229;-68
2021/11/21 11:50:45;;;;;;;18.65;17.13;;;35.30;23.80;;;;;;6325053;28;20259;-68
2021/11/21 11:53:51;;;;;;;19.05;17.60;;;34.40;24.10;;;;;;6300032;28;20225;-69
2021/11/21 11:56:58;;;;;;;19.15;17.58;;;34.40;24.20;;;;;;6299722;28;20249;-68
2021/11/21 12:00:25;;;;;;;18.65;17.15;;;34.60;24.40;;;;;;6295516;28;20234;-70
2021/11/21 12:03:43;;;;;;;19.05;17.45;;;35.70;23.70;;;;;;6300426;28;20287;-66
2021/11/21 12:06:49;;;;;;;17.83;16.42;;;36.30;23.00;;;;;;6297591;28;20617;-65
2021/11/21 12:10:09;;;;;;;17.60;16.15;;;36.50;22.80;;;;;;6300464;28;20572;-64
2021/11/21 12:13:12;;;;;;;18.08;16.60;;;36.60;22.60;;;;;;6300988;28;20228;-65
2021/11/21 12:16:16;;;;;;;17.77;16.20;;;36.60;22.40;;;;;;6299999;28;20586;-66
2021/11/21 12:19:39;;;;;;;17.20;15.83;;;36.10;22.70;;;;;;6301475;28;20751;-68
2021/11/21 12:22:43;;;;;;;17.65;16.25;;;36.40;22.50;;;;;;6308489;28;20530;-68
2021/11/21 12:25:47;;;;;;;16.40;15.13;;;36.70;22.50;;;;;;6300841;28;20237;-69
2021/11/21 12:28:58;;;;;;;16.27;14.98;;;36.40;22.30;;;;;;6320171;28;20227;-69
2021/11/21 12:32:35;;;;;;;17.02;15.63;;;36.00;22.80;;;;;;6326848;28;20230;-69
2021/11/21 12:35:39;;;;;;;14.80;13.40;;;35.70;22.70;;;;;;6229044;28;20672;-69
2021/11/21 12:38:44;;;;;;;14.48;13.35;;;34.50;23.60;;;;;;6229364;28;20264;-69
2021/11/21 12:42:01;;;;;;;14.73;13.55;;;34.10;23.60;;;;;;6304868;28;20206;-68
2021/11/21 12:45:12;;;;;;;14.63;13.52;;;34.10;24.00;;;;;;6304530;28;20587;-66
2021/11/21 12:48:25;;;;;;;14.95;13.65;;;34.10;23.80;;;;;;6302598;28;20309;-69
2021/11/21 12:51:28;;;;;;;14.68;13.38;;;33.50;24.30;;;;;;6301847;28;20218;-67
2021/11/21 12:54:33;;;;;;;15.95;14.55;;;33.60;24.20;;;;;;6304340;28;20222;-67
2021/11/21 12:57:52;;;;;;;17.23;15.77;;;33.10;24.70;;;;;;6304008;28;20305;-67
2021/11/21 13:00:58;;;;;;;15.65;14.35;;;33.70;24.70;;;;;;6302760;28;20233;-69
2021/11/21 13:04:01;;;;;;;14.75;13.55;;;33.70;24.80;;;;;;6304520;28;20226;-68
2021/11/21 13:07:36;;;;;;;15.75;14.35;;;33.70;25.00;;;;;;6295359;28;20234;-68
2021/11/21 13:10:41;;;;;;;15.52;14.32;;;33.10;25.10;;;;;;6304632;28;20576;-68
2021/11/21 13:13:47;;;;;;;16.70;15.27;;;33.30;25.20;;;;;;6305061;28;20226;-68
2021/11/21 13:16:50;;;;;;;15.98;14.70;;;33.10;25.30;;;;;;6303987;28;20257;-68
2021/11/21 13:20:08;;;;;;;16.35;14.95;;;33.10;25.20;;;;;;6304031;28;20229;-68
2021/11/21 13:23:16;;;;;;;15.97;14.53;;;32.90;25.30;;;;;;6303655;28;20237;-69
2021/11/21 13:26:23;;;;;;;16.23;15.00;;;32.10;26.30;;;;;;6303296;28;20230;-68
2021/11/21 13:29:26;;;;;;;16.23;14.83;;;31.80;26.70;;;;;;6303059;28;20309;-68
2021/11/21 13:32:31;;;;;;;15.00;13.80;;;31.70;26.90;;;;;;6303424;28;20230;-69
2021/11/21 13:35:34;;;;;;;15.60;14.30;;;32.00;26.40;;;;;;6303036;28;20226;-68
2021/11/21 13:38:41;;;;;;;15.60;14.40;;;31.80;26.40;;;;;;6302709;28;20589;-69
2021/11/21 13:41:57;;;;;;;14.67;13.30;;;31.60;26.50;;;;;;6303315;28;20610;-68
2021/11/21 13:45:00;;;;;;;16.50;15.10;;;31.40;26.80;;;;;;6302732;28;20557;-68
2021/11/21 13:48:03;;;;;;;14.07;12.87;;;31.20;27.00;;;;;;6303574;28;20226;-69
2021/11/21 13:51:09;;;;;;;14.70;13.50;;;31.10;27.20;;;;;;6303063;28;20601;-68
2021/11/21 13:54:12;;;;;;;15.77;14.47;;;30.90;27.10;;;;;;6303235;28;20245;-68
2021/11/21 13:57:23;;;;;;;15.80;14.47;;;30.20;28.10;;;;;;6308306;28;20240;-68
2021/11/21 14:00:27;;;;;;;17.37;15.93;;;28.90;29.40;;;;;;6327561;28;20712;-68
2021/11/21 14:03:37;;;;;;;18.37;16.50;;;27.50;31.00;;;;;;6319916;27;20230;-68
2021/11/21 14:06:41;;;;;;;16.60;15.20;;;25.80;33.20;;;;;;6302144;28;20235;-68
2021/11/21 14:09:55;;;;;;;15.73;14.13;;;24.20;35.60;;;;;;6293859;28;20231;-70
2021/11/21 14:13:08;;;;;;;15.87;14.33;;;22.70;37.80;;;;;;6302645;28;20231;-70
2021/11/21 14:16:15;;;;;;;15.60;14.20;;;21.20;40.50;;;;;;6302392;28;20246;-69
2021/11/21 14:19:29;;;;;;;16.33;14.73;;;19.80;42.90;;;;;;6301700;28;20252;-69
2021/11/21 14:22:32;;;;;;;15.07;13.70;;;18.50;46.50;;;;;;6299757;28;20237;-69
2021/11/21 14:25:39;;;;;;;16.50;14.80;;;17.60;48.00;;;;;;6300309;28;20469;-68
2021/11/21 14:28:46;;;;;;;15.93;14.30;;;16.70;50.60;;;;;;6300520;28;20824;-69
2021/11/21 14:31:59;;;;;;;16.07;14.40;;;15.80;53.40;;;;;;6300471;28;20933;-69
2021/11/21 14:35:18;;;;;;;16.60;14.30;;;15.10;55.70;;;;;;6300459;28;20603;-68
2021/11/21 14:38:22;;;;;;;19.10;16.20;;;14.50;58.10;;;;;;6300236;28;20484;-69
2021/11/21 14:41:26;;;;;;;15.87;14.37;;;14.10;61.10;;;;;;6300551;28;20465;-69
2021/11/21 14:44:30;;;;;;;14.47;13.00;;;13.80;64.20;;;;;;6300290;28;20791;-68
2021/11/21 14:47:33;;;;;;;15.33;13.77;;;13.30;67.70;;;;;;6299847;28;20478;-69
2021/11/21 14:50:37;;;;;;;14.90;13.50;;;13.00;72.80;;;;;;6300413;28;20477;-69
2021/11/21 14:53:42;;;;;;;14.43;13.13;;;12.70;75.30;;;;;;6300967;28;20444;-69
2021/11/21 14:56:49;;;;;;;15.97;14.37;;;12.50;78.20;;;;;;6302793;28;20464;-68
2021/11/21 14:59:53;;;;;;;15.30;13.80;;;12.20;81.60;;;;;;6324279;28;20514;-68
2021/11/21 15:02:56;;;;;;;14.70;12.97;;;12.10;84.20;;;;;;6302640;28;20461;-68
2021/11/21 15:06:00;;;;;;;14.27;12.90;;;11.90;86.20;;;;;;6301767;28;20461;-68
2021/11/21 15:09:05;;;;;;;15.60;13.97;;;11.80;88.00;;;;;;6301208;28;20770;-68
2021/11/21 15:12:09;;;;;;;17.10;13.30;;;11.60;89.80;;;;;;6296109;28;20477;-69
2021/11/21 15:15:14;;;;;;;14.80;13.30;;;11.50;90.60;;;;;;6300919;28;20496;-67
2021/11/21 15:18:17;;;;;;;15.30;13.73;;;11.40;91.30;;;;;;6301356;28;20480;-68
2021/11/21 15:21:20;;;;;;;15.20;13.70;;;11.20;91.90;;;;;;6300705;28;20479;-67
2021/11/21 15:24:24;;;;;;;17.40;14.50;;;11.10;92.70;;;;;;6300002;28;20605;-67
2021/11/21 15:27:28;;;;;;;16.43;13.70;;;10.90;93.10;;;;;;6300293;28;20919;-67
2021/11/21 15:30:33;;;;;;;15.37;13.83;;;10.80;93.70;;;;;;6300893;28;20941;-67
2021/11/21 15:33:36;;;;;;;21.67;17.70;;;10.60;94.30;;;;;;6301218;28;20469;-67
2021/11/21 15:36:39;;;;;;;21.97;19.50;;;10.60;95.30;;;;;;6299661;28;20481;-66
2021/11/21 15:39:43;;;;;;;22.73;20.53;;;10.40;95.70;;;;;;6299598;28;20845;-65
2021/11/21 15:42:46;;;;;;;21.87;19.00;;;10.30;96.10;;;;;;6299642;28;20752;-66
2021/11/21 15:45:52;;;;;;;20.20;17.60;;;10.20;96.80;;;;;;6299943;28;20477;-65